sensor_id;sensor_type;location;lat;lon;timestamp;temperature;humidity
5786;DHT22;2919;48.630;9.000;2023-03-24T00:00:40;12.10;99.30
5786;DHT22;2919;48.630;9.000;2023-03-24T00:03:06;12.10;99.40
5786;DHT22;2919;48.630;9.000;2023-03-24T00:05:33;12.10;99.50
5786;DHT22;2919;48.630;9.000;2023-03-24T00:07:58;12.20;99.10
5786;DHT22;2919;48.630;9.000;2023-03-24T00:10:24;12.20;98.70
5786;DHT22;2919;48.630;9.000;2023-03-24T00:12:50;12.20;98.70
5786;DHT22;2919;48.630;9.000;2023-03-24T00:15:19;12.20;98.70
5786;DHT22;2919;48.630;9.000;2023-03-24T00:17:46;12.20;98.80
5786;DHT22;2919;48.630;9.000;2023-03-24T00:20:15;12.20;98.90
5786;DHT22;2919;48.630;9.000;2023-03-24T00:22:46;12.20;98.70
5786;DHT22;2919;48.630;9.000;2023-03-24T00:25:18;12.20;98.70
5786;DHT22;2919;48.630;9.000;2023-03-24T00:27:44;12.10;98.70
5786;DHT22;2919;48.630;9.000;2023-03-24T00:30:13;12.20;98.60
5786;DHT22;2919;48.630;9.000;2023-03-24T00:32:39;12.20;98.30
5786;DHT22;2919;48.630;9.000;2023-03-24T00:35:07;12.20;98.50
5786;DHT22;2919;48.630;9.000;2023-03-24T00:37:34;12.30;98.10
5786;DHT22;2919;48.630;9.000;2023-03-24T00:40:03;12.30;97.90
5786;DHT22;2919;48.630;9.000;2023-03-24T00:42:35;12.40;97.90
5786;DHT22;2919;48.630;9.000;2023-03-24T00:45:05;12.30;97.80
5786;DHT22;2919;48.630;9.000;2023-03-24T00:47:31;12.40;97.80
5786;DHT22;2919;48.630;9.000;2023-03-24T00:50:03;12.40;97.90
5786;DHT22;2919;48.630;9.000;2023-03-24T00:52:29;12.30;97.70
5786;DHT22;2919;48.630;9.000;2023-03-24T00:54:59;12.40;97.50
5786;DHT22;2919;48.630;9.000;2023-03-24T00:57:27;12.40;97.30
5786;DHT22;2919;48.630;9.000;2023-03-24T00:59:55;12.40;97.20
5786;DHT22;2919;48.630;9.000;2023-03-24T01:02:24;12.40;97.10
5786;DHT22;2919;48.630;9.000;2023-03-24T01:04:54;12.50;96.90
5786;DHT22;2919;48.630;9.000;2023-03-24T01:07:21;12.50;96.80
5786;DHT22;2919;48.630;9.000;2023-03-24T01:09:47;12.50;96.80
5786;DHT22;2919;48.630;9.000;2023-03-24T01:12:32;12.40;96.90
5786;DHT22;2919;48.630;9.000;2023-03-24T01:15:00;12.40;97.10
5786;DHT22;2919;48.630;9.000;2023-03-24T01:17:27;12.30;97.20
5786;DHT22;2919;48.630;9.000;2023-03-24T01:19:54;12.30;97.40
5786;DHT22;2919;48.630;9.000;2023-03-24T01:22:21;12.30;97.40
5786;DHT22;2919;48.630;9.000;2023-03-24T01:24:48;12.30;97.30
5786;DHT22;2919;48.630;9.000;2023-03-24T01:27:14;12.20;97.50
5786;DHT22;2919;48.630;9.000;2023-03-24T01:29:41;12.20;97.50
5786;DHT22;2919;48.630;9.000;2023-03-24T01:32:07;12.20;97.60
5786;DHT22;2919;48.630;9.000;2023-03-24T01:34:33;12.20;97.50
5786;DHT22;2919;48.630;9.000;2023-03-24T01:36:59;12.20;97.60
5786;DHT22;2919;48.630;9.000;2023-03-24T01:39:25;12.20;97.60
5786;DHT22;2919;48.630;9.000;2023-03-24T01:41:51;12.10;97.60
5786;DHT22;2919;48.630;9.000;2023-03-24T01:44:30;12.20;97.50
5786;DHT22;2919;48.630;9.000;2023-03-24T01:46:57;12.20;97.60
5786;DHT22;2919;48.630;9.000;2023-03-24T01:49:28;12.20;97.50
5786;DHT22;2919;48.630;9.000;2023-03-24T01:51:57;12.20;97.60
5786;DHT22;2919;48.630;9.000;2023-03-24T01:54:34;12.20;97.50
5786;DHT22;2919;48.630;9.000;2023-03-24T01:57:09;12.20;97.50
5786;DHT22;2919;48.630;9.000;2023-03-24T01:59:38;12.20;97.30
5786;DHT22;2919;48.630;9.000;2023-03-24T02:02:05;12.30;97.40
5786;DHT22;2919;48.630;9.000;2023-03-24T02:04:33;12.30;97.20
5786;DHT22;2919;48.630;9.000;2023-03-24T02:07:13;12.40;97.30
5786;DHT22;2919;48.630;9.000;2023-03-24T02:09:39;12.40;97.30
5786;DHT22;2919;48.630;9.000;2023-03-24T02:12:05;12.50;96.90
5786;DHT22;2919;48.630;9.000;2023-03-24T02:14:31;12.60;96.80
5786;DHT22;2919;48.630;9.000;2023-03-24T02:17:07;12.60;96.80
5786;DHT22;2919;48.630;9.000;2023-03-24T02:39:21;12.50;96.80
5786;DHT22;2919;48.630;9.000;2023-03-24T02:41:52;12.40;96.80
5786;DHT22;2919;48.630;9.000;2023-03-24T02:47:15;12.50;96.70
5786;DHT22;2919;48.630;9.000;2023-03-24T02:49:47;12.60;96.50
5786;DHT22;2919;48.630;9.000;2023-03-24T02:57:35;12.70;96.00
5786;DHT22;2919;48.630;9.000;2023-03-24T03:02:45;12.60;96.00
5786;DHT22;2919;48.630;9.000;2023-03-24T03:05:26;12.60;96.30
5786;DHT22;2919;48.630;9.000;2023-03-24T03:07:54;12.50;96.50
5786;DHT22;2919;48.630;9.000;2023-03-24T03:10:26;12.50;96.70
5786;DHT22;2919;48.630;9.000;2023-03-24T03:12:56;12.50;96.70
5786;DHT22;2919;48.630;9.000;2023-03-24T03:15:40;12.50;96.70
5786;DHT22;2919;48.630;9.000;2023-03-24T03:18:36;12.50;96.60
5786;DHT22;2919;48.630;9.000;2023-03-24T03:21:08;12.60;96.70
5786;DHT22;2919;48.630;9.000;2023-03-24T03:23:57;12.60;96.60
5786;DHT22;2919;48.630;9.000;2023-03-24T03:26:23;12.60;96.50
5786;DHT22;2919;48.630;9.000;2023-03-24T03:28:56;12.60;96.60
5786;DHT22;2919;48.630;9.000;2023-03-24T03:31:41;12.60;96.50
5786;DHT22;2919;48.630;9.000;2023-03-24T03:39:43;12.60;96.50
5786;DHT22;2919;48.630;9.000;2023-03-24T03:42:10;12.70;96.00
5786;DHT22;2919;48.630;9.000;2023-03-24T03:44:36;12.70;95.90
5786;DHT22;2919;48.630;9.000;2023-03-24T03:47:02;12.70;95.80
5786;DHT22;2919;48.630;9.000;2023-03-24T03:49:28;12.80;95.80
5786;DHT22;2919;48.630;9.000;2023-03-24T03:51:54;12.80;95.80
5786;DHT22;2919;48.630;9.000;2023-03-24T03:54:22;12.80;96.00
5786;DHT22;2919;48.630;9.000;2023-03-24T03:56:49;12.70;95.90
5786;DHT22;2919;48.630;9.000;2023-03-24T03:59:41;12.70;96.20
5786;DHT22;2919;48.630;9.000;2023-03-24T04:13:28;12.80;96.50
5786;DHT22;2919;48.630;9.000;2023-03-24T04:26:55;12.60;97.20
5786;DHT22;2919;48.630;9.000;2023-03-24T04:34:50;12.40;97.40
5786;DHT22;2919;48.630;9.000;2023-03-24T04:37:26;12.50;97.40
5786;DHT22;2919;48.630;9.000;2023-03-24T04:39:53;12.50;97.40
5786;DHT22;2919;48.630;9.000;2023-03-24T04:42:59;12.50;97.40
5786;DHT22;2919;48.630;9.000;2023-03-24T04:45:18;12.50;97.40
5786;DHT22;2919;48.630;9.000;2023-03-24T04:47:52;12.50;97.50
5786;DHT22;2919;48.630;9.000;2023-03-24T04:52:56;12.50;97.60
5786;DHT22;2919;48.630;9.000;2023-03-24T04:58:29;12.50;97.80
5786;DHT22;2919;48.630;9.000;2023-03-24T05:00:55;12.50;97.90
5786;DHT22;2919;48.630;9.000;2023-03-24T05:03:21;12.50;98.00
5786;DHT22;2919;48.630;9.000;2023-03-24T05:05:48;12.40;98.30
5786;DHT22;2919;48.630;9.000;2023-03-24T05:08:15;12.40;98.60
5786;DHT22;2919;48.630;9.000;2023-03-24T05:10:42;12.30;98.70
5786;DHT22;2919;48.630;9.000;2023-03-24T05:13:08;12.30;98.80
5786;DHT22;2919;48.630;9.000;2023-03-24T05:15:34;12.20;99.00
5786;DHT22;2919;48.630;9.000;2023-03-24T05:18:00;12.20;99.60
5786;DHT22;2919;48.630;9.000;2023-03-24T05:20:26;12.00;99.90
5786;DHT22;2919;48.630;9.000;2023-03-24T05:22:52;12.00;99.90
5786;DHT22;2919;48.630;9.000;2023-03-24T05:25:18;12.00;99.90
5786;DHT22;2919;48.630;9.000;2023-03-24T05:27:44;11.90;99.90
5786;DHT22;2919;48.630;9.000;2023-03-24T05:30:10;11.80;99.90
5786;DHT22;2919;48.630;9.000;2023-03-24T05:32:36;11.70;99.90
5786;DHT22;2919;48.630;9.000;2023-03-24T05:35:03;11.60;99.90
5786;DHT22;2919;48.630;9.000;2023-03-24T05:37:29;11.50;99.90
5786;DHT22;2919;48.630;9.000;2023-03-24T05:39:54;11.40;99.90
5786;DHT22;2919;48.630;9.000;2023-03-24T05:42:20;11.40;99.90
5786;DHT22;2919;48.630;9.000;2023-03-24T05:44:46;11.30;99.90
5786;DHT22;2919;48.630;9.000;2023-03-24T05:47:13;11.30;99.90
5786;DHT22;2919;48.630;9.000;2023-03-24T05:49:41;11.30;99.90
5786;DHT22;2919;48.630;9.000;2023-03-24T05:52:08;11.20;99.90
5786;DHT22;2919;48.630;9.000;2023-03-24T05:54:34;11.20;99.90
5786;DHT22;2919;48.630;9.000;2023-03-24T05:57:00;11.20;99.90
5786;DHT22;2919;48.630;9.000;2023-03-24T05:59:27;11.10;99.90
5786;DHT22;2919;48.630;9.000;2023-03-24T06:01:52;11.10;99.90
5786;DHT22;2919;48.630;9.000;2023-03-24T06:04:21;11.10;99.90
5786;DHT22;2919;48.630;9.000;2023-03-24T06:06:47;11.10;99.90
5786;DHT22;2919;48.630;9.000;2023-03-24T06:09:13;11.00;99.90
5786;DHT22;2919;48.630;9.000;2023-03-24T06:11:44;11.10;99.90
5786;DHT22;2919;48.630;9.000;2023-03-24T06:14:10;11.10;99.90
5786;DHT22;2919;48.630;9.000;2023-03-24T06:16:36;11.10;99.90
5786;DHT22;2919;48.630;9.000;2023-03-24T06:19:05;11.20;99.90
5786;DHT22;2919;48.630;9.000;2023-03-24T06:21:32;11.10;99.90
5786;DHT22;2919;48.630;9.000;2023-03-24T06:23:58;11.10;99.90
5786;DHT22;2919;48.630;9.000;2023-03-24T06:26:24;11.10;99.90
5786;DHT22;2919;48.630;9.000;2023-03-24T06:28:50;11.10;99.90
5786;DHT22;2919;48.630;9.000;2023-03-24T06:31:19;11.10;99.90
5786;DHT22;2919;48.630;9.000;2023-03-24T06:33:49;11.10;99.90
5786;DHT22;2919;48.630;9.000;2023-03-24T06:36:15;11.10;99.90
5786;DHT22;2919;48.630;9.000;2023-03-24T06:38:41;11.10;99.90
5786;DHT22;2919;48.630;9.000;2023-03-24T06:41:08;11.20;99.90
5786;DHT22;2919;48.630;9.000;2023-03-24T06:43:34;11.30;99.90
5786;DHT22;2919;48.630;9.000;2023-03-24T06:46:00;11.40;99.90
5786;DHT22;2919;48.630;9.000;2023-03-24T06:48:26;11.50;99.90
5786;DHT22;2919;48.630;9.000;2023-03-24T06:50:52;11.50;99.90
5786;DHT22;2919;48.630;9.000;2023-03-24T06:53:18;11.50;99.90
5786;DHT22;2919;48.630;9.000;2023-03-24T06:55:46;11.40;99.90
5786;DHT22;2919;48.630;9.000;2023-03-24T06:58:12;11.40;99.90
5786;DHT22;2919;48.630;9.000;2023-03-24T07:00:39;11.40;99.90
5786;DHT22;2919;48.630;9.000;2023-03-24T07:03:05;11.30;99.90
5786;DHT22;2919;48.630;9.000;2023-03-24T07:05:36;11.20;99.90
5786;DHT22;2919;48.630;9.000;2023-03-24T07:08:02;11.30;99.90
5786;DHT22;2919;48.630;9.000;2023-03-24T07:10:28;11.20;99.90
5786;DHT22;2919;48.630;9.000;2023-03-24T07:12:54;11.20;99.90
5786;DHT22;2919;48.630;9.000;2023-03-24T07:15:20;11.10;99.90
5786;DHT22;2919;48.630;9.000;2023-03-24T07:17:45;11.10;99.90
5786;DHT22;2919;48.630;9.000;2023-03-24T07:20:11;11.10;99.90
5786;DHT22;2919;48.630;9.000;2023-03-24T07:22:37;11.10;99.90
5786;DHT22;2919;48.630;9.000;2023-03-24T07:25:04;11.10;99.90
5786;DHT22;2919;48.630;9.000;2023-03-24T07:27:33;11.10;99.90
5786;DHT22;2919;48.630;9.000;2023-03-24T07:29:59;11.00;99.90
5786;DHT22;2919;48.630;9.000;2023-03-24T07:32:25;11.00;99.90
5786;DHT22;2919;48.630;9.000;2023-03-24T07:34:53;11.00;99.90
5786;DHT22;2919;48.630;9.000;2023-03-24T07:37:18;11.00;99.90
5786;DHT22;2919;48.630;9.000;2023-03-24T07:39:44;11.00;99.90
5786;DHT22;2919;48.630;9.000;2023-03-24T07:42:10;11.00;99.90
5786;DHT22;2919;48.630;9.000;2023-03-24T07:44:35;11.00;99.90
5786;DHT22;2919;48.630;9.000;2023-03-24T07:47:01;11.00;99.90
5786;DHT22;2919;48.630;9.000;2023-03-24T07:49:26;11.00;99.90
5786;DHT22;2919;48.630;9.000;2023-03-24T07:51:52;11.00;99.90
5786;DHT22;2919;48.630;9.000;2023-03-24T07:54:18;11.00;99.90
5786;DHT22;2919;48.630;9.000;2023-03-24T07:56:43;11.00;99.90
5786;DHT22;2919;48.630;9.000;2023-03-24T07:59:09;11.00;99.90
5786;DHT22;2919;48.630;9.000;2023-03-24T08:01:35;11.00;99.90
5786;DHT22;2919;48.630;9.000;2023-03-24T08:04:02;11.00;99.90
5786;DHT22;2919;48.630;9.000;2023-03-24T08:06:29;11.00;99.90
5786;DHT22;2919;48.630;9.000;2023-03-24T08:08:54;11.00;99.90
5786;DHT22;2919;48.630;9.000;2023-03-24T08:11:20;11.00;99.90
5786;DHT22;2919;48.630;9.000;2023-03-24T08:13:46;11.00;99.90
5786;DHT22;2919;48.630;9.000;2023-03-24T08:16:12;11.10;99.90
5786;DHT22;2919;48.630;9.000;2023-03-24T08:18:38;11.00;99.90
5786;DHT22;2919;48.630;9.000;2023-03-24T08:21:04;11.10;99.90
5786;DHT22;2919;48.630;9.000;2023-03-24T08:23:30;11.10;99.90
5786;DHT22;2919;48.630;9.000;2023-03-24T08:25:55;11.10;99.90
5786;DHT22;2919;48.630;9.000;2023-03-24T08:28:21;11.10;99.90
5786;DHT22;2919;48.630;9.000;2023-03-24T08:30:47;11.20;99.90
5786;DHT22;2919;48.630;9.000;2023-03-24T08:33:14;11.20;99.90
5786;DHT22;2919;48.630;9.000;2023-03-24T08:35:40;11.20;99.90
5786;DHT22;2919;48.630;9.000;2023-03-24T08:38:09;11.20;99.90
5786;DHT22;2919;48.630;9.000;2023-03-24T08:40:37;11.20;99.90
5786;DHT22;2919;48.630;9.000;2023-03-24T08:43:05;11.20;99.90
5786;DHT22;2919;48.630;9.000;2023-03-24T08:45:33;11.20;99.90
5786;DHT22;2919;48.630;9.000;2023-03-24T08:48:01;11.20;99.90
5786;DHT22;2919;48.630;9.000;2023-03-24T08:50:29;11.30;99.90
5786;DHT22;2919;48.630;9.000;2023-03-24T08:52:57;11.40;99.90
5786;DHT22;2919;48.630;9.000;2023-03-24T08:55:23;11.40;99.90
5786;DHT22;2919;48.630;9.000;2023-03-24T08:57:49;11.40;99.90
5786;DHT22;2919;48.630;9.000;2023-03-24T09:00:16;11.50;99.90
5786;DHT22;2919;48.630;9.000;2023-03-24T09:02:44;11.40;99.90
5786;DHT22;2919;48.630;9.000;2023-03-24T09:05:12;11.50;99.90
5786;DHT22;2919;48.630;9.000;2023-03-24T09:07:38;11.50;99.90
5786;DHT22;2919;48.630;9.000;2023-03-24T09:10:06;11.50;99.90
5786;DHT22;2919;48.630;9.000;2023-03-24T09:12:32;11.60;99.90
5786;DHT22;2919;48.630;9.000;2023-03-24T09:14:58;11.60;99.90
5786;DHT22;2919;48.630;9.000;2023-03-24T09:17:24;11.70;99.90
5786;DHT22;2919;48.630;9.000;2023-03-24T09:19:49;11.70;99.90
5786;DHT22;2919;48.630;9.000;2023-03-24T09:22:15;11.70;99.90
5786;DHT22;2919;48.630;9.000;2023-03-24T09:24:41;11.80;99.90
5786;DHT22;2919;48.630;9.000;2023-03-24T09:27:08;11.90;99.90
5786;DHT22;2919;48.630;9.000;2023-03-24T09:29:34;12.00;99.90
5786;DHT22;2919;48.630;9.000;2023-03-24T09:32:00;12.10;99.90
5786;DHT22;2919;48.630;9.000;2023-03-24T09:34:26;12.20;99.90
5786;DHT22;2919;48.630;9.000;2023-03-24T09:36:51;12.30;99.90
5786;DHT22;2919;48.630;9.000;2023-03-24T09:39:17;12.40;99.90
5786;DHT22;2919;48.630;9.000;2023-03-24T09:41:43;12.60;99.90
5786;DHT22;2919;48.630;9.000;2023-03-24T09:44:32;12.80;99.90
5786;DHT22;2919;48.630;9.000;2023-03-24T09:49:47;12.80;99.90
5786;DHT22;2919;48.630;9.000;2023-03-24T09:52:27;12.90;99.90
5786;DHT22;2919;48.630;9.000;2023-03-24T09:54:55;13.00;99.90
5786;DHT22;2919;48.630;9.000;2023-03-24T09:59:53;13.10;99.90
5786;DHT22;2919;48.630;9.000;2023-03-24T10:02:20;13.30;99.90
5786;DHT22;2919;48.630;9.000;2023-03-24T10:04:47;13.40;99.90
5786;DHT22;2919;48.630;9.000;2023-03-24T10:07:36;13.50;99.90
5786;DHT22;2919;48.630;9.000;2023-03-24T10:10:21;13.70;99.90
5786;DHT22;2919;48.630;9.000;2023-03-24T10:12:48;13.70;99.90
5786;DHT22;2919;48.630;9.000;2023-03-24T10:15:38;13.80;99.90
5786;DHT22;2919;48.630;9.000;2023-03-24T10:20:59;14.00;99.90
5786;DHT22;2919;48.630;9.000;2023-03-24T10:26:32;13.80;99.90
5786;DHT22;2919;48.630;9.000;2023-03-24T10:29:23;14.00;99.90
5786;DHT22;2919;48.630;9.000;2023-03-24T10:31:53;14.10;99.90
5786;DHT22;2919;48.630;9.000;2023-03-24T10:34:26;14.10;99.90
5786;DHT22;2919;48.630;9.000;2023-03-24T10:36:52;14.10;99.90
5786;DHT22;2919;48.630;9.000;2023-03-24T10:39:18;14.00;99.90
5786;DHT22;2919;48.630;9.000;2023-03-24T10:41:44;14.00;99.90
5786;DHT22;2919;48.630;9.000;2023-03-24T10:44:11;14.00;99.90
5786;DHT22;2919;48.630;9.000;2023-03-24T10:46:44;14.10;99.90
5786;DHT22;2919;48.630;9.000;2023-03-24T10:51:37;14.00;99.90
5786;DHT22;2919;48.630;9.000;2023-03-24T10:56:44;13.90;99.90
5786;DHT22;2919;48.630;9.000;2023-03-24T11:04:47;14.10;99.90
5786;DHT22;2919;48.630;9.000;2023-03-24T11:07:21;14.20;99.90
5786;DHT22;2919;48.630;9.000;2023-03-24T11:10:01;14.40;99.90
5786;DHT22;2919;48.630;9.000;2023-03-24T11:12:30;14.50;99.90
5786;DHT22;2919;48.630;9.000;2023-03-24T11:17:43;14.60;99.90
5786;DHT22;2919;48.630;9.000;2023-03-24T11:20:29;14.60;99.90
5786;DHT22;2919;48.630;9.000;2023-03-24T11:25:29;14.60;99.90
5786;DHT22;2919;48.630;9.000;2023-03-24T11:27:59;14.50;99.90
5786;DHT22;2919;48.630;9.000;2023-03-24T11:30:44;14.40;99.90
5786;DHT22;2919;48.630;9.000;2023-03-24T11:33:29;14.40;99.90
5786;DHT22;2919;48.630;9.000;2023-03-24T11:39:00;14.50;99.90
5786;DHT22;2919;48.630;9.000;2023-03-24T11:41:27;14.40;99.90
5786;DHT22;2919;48.630;9.000;2023-03-24T11:44:21;14.30;99.90
5786;DHT22;2919;48.630;9.000;2023-03-24T11:46:56;14.30;99.90
5786;DHT22;2919;48.630;9.000;2023-03-24T11:49:28;14.20;99.90
5786;DHT22;2919;48.630;9.000;2023-03-24T11:51:55;14.20;99.90
5786;DHT22;2919;48.630;9.000;2023-03-24T11:54:25;14.10;99.90
5786;DHT22;2919;48.630;9.000;2023-03-24T11:56:56;14.10;99.90
5786;DHT22;2919;48.630;9.000;2023-03-24T11:59:47;14.10;99.90
5786;DHT22;2919;48.630;9.000;2023-03-24T12:05:22;14.10;99.90
5786;DHT22;2919;48.630;9.000;2023-03-24T12:10:43;14.00;99.90
5786;DHT22;2919;48.630;9.000;2023-03-24T12:13:15;14.00;99.90
5786;DHT22;2919;48.630;9.000;2023-03-24T12:18:41;14.10;99.90
5786;DHT22;2919;48.630;9.000;2023-03-24T12:21:23;14.20;99.90
5786;DHT22;2919;48.630;9.000;2023-03-24T12:24:04;14.30;99.90
5786;DHT22;2919;48.630;9.000;2023-03-24T12:26:35;14.30;99.90
5786;DHT22;2919;48.630;9.000;2023-03-24T12:46:18;14.00;99.90
5786;DHT22;2919;48.630;9.000;2023-03-24T12:55:11;14.10;99.90
5786;DHT22;2919;48.630;9.000;2023-03-24T12:57:49;14.10;99.90
5786;DHT22;2919;48.630;9.000;2023-03-24T13:02:46;14.20;99.90
5786;DHT22;2919;48.630;9.000;2023-03-24T13:05:32;14.30;99.90
5786;DHT22;2919;48.630;9.000;2023-03-24T13:08:02;14.30;99.90
5786;DHT22;2919;48.630;9.000;2023-03-24T13:10:33;14.30;99.90
5786;DHT22;2919;48.630;9.000;2023-03-24T13:13:21;14.30;99.90
5786;DHT22;2919;48.630;9.000;2023-03-24T13:15:52;14.20;99.90
5786;DHT22;2919;48.630;9.000;2023-03-24T13:18:53;14.10;99.90
5786;DHT22;2919;48.630;9.000;2023-03-24T13:21:23;13.90;99.90
5786;DHT22;2919;48.630;9.000;2023-03-24T13:24:01;13.80;99.90
5786;DHT22;2919;48.630;9.000;2023-03-24T13:35:03;13.50;99.90
5786;DHT22;2919;48.630;9.000;2023-03-24T13:37:52;13.40;99.90
5786;DHT22;2919;48.630;9.000;2023-03-24T13:40:25;13.40;99.90
5786;DHT22;2919;48.630;9.000;2023-03-24T13:42:59;13.30;99.90
5786;DHT22;2919;48.630;9.000;2023-03-24T13:45:40;13.30;99.90
5786;DHT22;2919;48.630;9.000;2023-03-24T13:53:34;13.20;99.90
5786;DHT22;2919;48.630;9.000;2023-03-24T13:56:03;13.10;99.90
5786;DHT22;2919;48.630;9.000;2023-03-24T14:01:42;13.20;99.90
5786;DHT22;2919;48.630;9.000;2023-03-24T14:04:24;13.30;99.90
5786;DHT22;2919;48.630;9.000;2023-03-24T14:06:54;13.20;99.90
5786;DHT22;2919;48.630;9.000;2023-03-24T14:14:28;13.20;99.90
5786;DHT22;2919;48.630;9.000;2023-03-24T14:19:36;13.30;99.90
5786;DHT22;2919;48.630;9.000;2023-03-24T14:22:29;13.40;99.90
5786;DHT22;2919;48.630;9.000;2023-03-24T14:25:02;13.50;99.90
5786;DHT22;2919;48.630;9.000;2023-03-24T14:27:39;13.50;99.90
5786;DHT22;2919;48.630;9.000;2023-03-24T14:32:54;13.40;99.90
5786;DHT22;2919;48.630;9.000;2023-03-24T14:35:35;13.30;99.90
5786;DHT22;2919;48.630;9.000;2023-03-24T14:40:49;13.10;99.90
5786;DHT22;2919;48.630;9.000;2023-03-24T14:43:26;13.00;99.90
5786;DHT22;2919;48.630;9.000;2023-03-24T14:46:00;12.90;99.90
5786;DHT22;2919;48.630;9.000;2023-03-24T14:48:33;12.80;99.90
5786;DHT22;2919;48.630;9.000;2023-03-24T14:53:55;12.80;99.90
5786;DHT22;2919;48.630;9.000;2023-03-24T14:56:22;12.60;99.90
5786;DHT22;2919;48.630;9.000;2023-03-24T14:58:51;12.60;99.90
5786;DHT22;2919;48.630;9.000;2023-03-24T15:01:21;12.50;99.90
5786;DHT22;2919;48.630;9.000;2023-03-24T15:04:01;12.50;99.90
5786;DHT22;2919;48.630;9.000;2023-03-24T15:06:30;12.50;99.90
5786;DHT22;2919;48.630;9.000;2023-03-24T15:08:57;12.40;99.90
5786;DHT22;2919;48.630;9.000;2023-03-24T15:11:32;12.40;99.90
5786;DHT22;2919;48.630;9.000;2023-03-24T15:14:03;12.40;99.90
5786;DHT22;2919;48.630;9.000;2023-03-24T15:16:34;12.50;99.90
5786;DHT22;2919;48.630;9.000;2023-03-24T15:19:07;12.40;99.90
5786;DHT22;2919;48.630;9.000;2023-03-24T15:21:34;12.40;99.90
5786;DHT22;2919;48.630;9.000;2023-03-24T15:24:02;12.50;99.90
5786;DHT22;2919;48.630;9.000;2023-03-24T15:26:29;12.50;99.90
5786;DHT22;2919;48.630;9.000;2023-03-24T15:31:26;12.60;99.90
5786;DHT22;2919;48.630;9.000;2023-03-24T15:34:05;12.60;99.90
5786;DHT22;2919;48.630;9.000;2023-03-24T15:36:37;12.50;99.90
5786;DHT22;2919;48.630;9.000;2023-03-24T15:39:16;12.40;99.90
5786;DHT22;2919;48.630;9.000;2023-03-24T15:41:43;12.30;99.90
5786;DHT22;2919;48.630;9.000;2023-03-24T15:44:16;12.20;99.90
5786;DHT22;2919;48.630;9.000;2023-03-24T15:46:44;12.20;99.90
5786;DHT22;2919;48.630;9.000;2023-03-24T15:49:20;12.00;99.90
5786;DHT22;2919;48.630;9.000;2023-03-24T15:51:50;11.70;99.90
5786;DHT22;2919;48.630;9.000;2023-03-24T15:54:38;11.40;99.90
5786;DHT22;2919;48.630;9.000;2023-03-24T16:02:42;10.90;99.90
5786;DHT22;2919;48.630;9.000;2023-03-24T16:05:17;10.80;99.90
5786;DHT22;2919;48.630;9.000;2023-03-24T16:07:44;10.70;99.90
5786;DHT22;2919;48.630;9.000;2023-03-24T16:12:52;10.70;99.90
5786;DHT22;2919;48.630;9.000;2023-03-24T16:15:18;10.60;99.90
5786;DHT22;2919;48.630;9.000;2023-03-24T16:17:43;10.60;99.90
5786;DHT22;2919;48.630;9.000;2023-03-24T16:20:18;10.60;99.90
5786;DHT22;2919;48.630;9.000;2023-03-24T16:22:44;10.60;99.90
5786;DHT22;2919;48.630;9.000;2023-03-24T16:25:11;10.60;99.90
5786;DHT22;2919;48.630;9.000;2023-03-24T16:27:37;10.70;99.90
5786;DHT22;2919;48.630;9.000;2023-03-24T16:30:18;10.80;99.90
5786;DHT22;2919;48.630;9.000;2023-03-24T16:32:44;10.80;99.90
5786;DHT22;2919;48.630;9.000;2023-03-24T16:35:10;10.80;99.90
5786;DHT22;2919;48.630;9.000;2023-03-24T16:37:36;11.00;99.90
5786;DHT22;2919;48.630;9.000;2023-03-24T16:40:01;11.20;99.90
5786;DHT22;2919;48.630;9.000;2023-03-24T16:42:29;11.20;99.90
5786;DHT22;2919;48.630;9.000;2023-03-24T16:44:54;11.20;99.90
5786;DHT22;2919;48.630;9.000;2023-03-24T16:47:20;11.20;99.90
5786;DHT22;2919;48.630;9.000;2023-03-24T16:49:46;11.20;99.90
5786;DHT22;2919;48.630;9.000;2023-03-24T16:52:12;11.20;99.90
5786;DHT22;2919;48.630;9.000;2023-03-24T16:54:37;11.10;99.90
5786;DHT22;2919;48.630;9.000;2023-03-24T16:57:03;11.00;99.90
5786;DHT22;2919;48.630;9.000;2023-03-24T16:59:29;10.90;99.90
5786;DHT22;2919;48.630;9.000;2023-03-24T17:01:59;10.90;99.90
5786;DHT22;2919;48.630;9.000;2023-03-24T17:04:27;10.80;99.90
5786;DHT22;2919;48.630;9.000;2023-03-24T17:06:57;10.80;99.90
5786;DHT22;2919;48.630;9.000;2023-03-24T17:09:23;10.80;99.90
5786;DHT22;2919;48.630;9.000;2023-03-24T17:11:51;10.70;99.90
5786;DHT22;2919;48.630;9.000;2023-03-24T17:14:17;10.70;99.90
5786;DHT22;2919;48.630;9.000;2023-03-24T17:16:45;10.70;99.90
5786;DHT22;2919;48.630;9.000;2023-03-24T17:19:19;10.70;99.90
5786;DHT22;2919;48.630;9.000;2023-03-24T17:21:51;10.70;99.90
5786;DHT22;2919;48.630;9.000;2023-03-24T17:24:19;10.60;99.90
5786;DHT22;2919;48.630;9.000;2023-03-24T17:26:46;10.50;99.90
5786;DHT22;2919;48.630;9.000;2023-03-24T17:29:12;10.60;99.90
5786;DHT22;2919;48.630;9.000;2023-03-24T17:31:38;10.50;99.90
5786;DHT22;2919;48.630;9.000;2023-03-24T17:34:04;10.50;99.90
5786;DHT22;2919;48.630;9.000;2023-03-24T17:36:29;10.40;99.90
5786;DHT22;2919;48.630;9.000;2023-03-24T17:38:55;10.40;99.90
5786;DHT22;2919;48.630;9.000;2023-03-24T17:41:21;10.30;99.90
5786;DHT22;2919;48.630;9.000;2023-03-24T17:43:46;10.30;99.90
5786;DHT22;2919;48.630;9.000;2023-03-24T17:46:12;10.30;99.90
5786;DHT22;2919;48.630;9.000;2023-03-24T17:48:38;10.20;99.90
5786;DHT22;2919;48.630;9.000;2023-03-24T17:51:04;10.10;99.90
5786;DHT22;2919;48.630;9.000;2023-03-24T17:53:30;10.10;99.90
5786;DHT22;2919;48.630;9.000;2023-03-24T17:55:59;10.00;99.90
5786;DHT22;2919;48.630;9.000;2023-03-24T17:58:32;10.00;99.90
5786;DHT22;2919;48.630;9.000;2023-03-24T18:00:59;10.00;99.90
5786;DHT22;2919;48.630;9.000;2023-03-24T18:03:26;9.90;99.90
5786;DHT22;2919;48.630;9.000;2023-03-24T18:05:54;9.90;99.90
5786;DHT22;2919;48.630;9.000;2023-03-24T18:08:20;9.80;99.90
5786;DHT22;2919;48.630;9.000;2023-03-24T18:10:45;9.80;99.90
5786;DHT22;2919;48.630;9.000;2023-03-24T18:13:11;9.90;99.90
5786;DHT22;2919;48.630;9.000;2023-03-24T18:15:40;9.80;99.90
5786;DHT22;2919;48.630;9.000;2023-03-24T18:18:06;9.70;99.90
5786;DHT22;2919;48.630;9.000;2023-03-24T18:20:32;9.80;99.90
5786;DHT22;2919;48.630;9.000;2023-03-24T18:23:00;9.70;99.90
5786;DHT22;2919;48.630;9.000;2023-03-24T18:25:26;9.70;99.90
5786;DHT22;2919;48.630;9.000;2023-03-24T18:27:51;9.70;99.90
5786;DHT22;2919;48.630;9.000;2023-03-24T18:30:17;9.70;99.90
5786;DHT22;2919;48.630;9.000;2023-03-24T18:32:43;9.70;99.90
5786;DHT22;2919;48.630;9.000;2023-03-24T18:35:11;9.80;99.90
5786;DHT22;2919;48.630;9.000;2023-03-24T18:37:40;9.70;99.90
5786;DHT22;2919;48.630;9.000;2023-03-24T18:40:06;9.70;99.90
5786;DHT22;2919;48.630;9.000;2023-03-24T18:42:33;9.70;99.90
5786;DHT22;2919;48.630;9.000;2023-03-24T18:44:59;9.70;99.90
5786;DHT22;2919;48.630;9.000;2023-03-24T18:47:25;9.70;99.90
5786;DHT22;2919;48.630;9.000;2023-03-24T18:49:50;9.70;99.90
5786;DHT22;2919;48.630;9.000;2023-03-24T18:52:16;9.70;99.90
5786;DHT22;2919;48.630;9.000;2023-03-24T18:54:45;9.70;99.90
5786;DHT22;2919;48.630;9.000;2023-03-24T18:57:10;9.60;99.90
5786;DHT22;2919;48.630;9.000;2023-03-24T18:59:36;9.50;99.90
5786;DHT22;2919;48.630;9.000;2023-03-24T19:02:02;9.50;99.90
5786;DHT22;2919;48.630;9.000;2023-03-24T19:04:28;9.60;99.90
5786;DHT22;2919;48.630;9.000;2023-03-24T19:06:53;9.50;99.90
5786;DHT22;2919;48.630;9.000;2023-03-24T19:09:19;9.40;99.90
5786;DHT22;2919;48.630;9.000;2023-03-24T19:11:47;9.40;99.90
5786;DHT22;2919;48.630;9.000;2023-03-24T19:14:13;9.40;99.90